Time;durP1;ratioP1;P1;durP2;ratioP2;P2;SDS_P1;SDS_P2;PMS_P1;PMS_P2;Temp;Humidity;BMP_temperature;BMP_pressure;BME280_temperature;BME280_humidity;BME280_pressure;Samples;Min_cycle;Max_cycle;Signal;HPM_P1;HPM_P2
2022/06/23 00:01:13;;;;;;;0.40;0.10;;;;;;;18.68;58.06;100169.20;104331;1277;109045;-68
2022/06/23 00:03:41;;;;;;;0.40;0.10;;;;;;;18.65;58.44;100172.84;104066;1277;139821;-70
2022/06/23 00:06:26;;;;;;;0.40;0.10;;;;;;;18.64;58.69;100171.27;104304;1277;107692;-69
2022/06/23 00:08:54;;;;;;;0.40;0.10;;;;;;;18.63;58.73;100170.05;103996;1277;138289;-70
2022/06/23 00:11:27;;;;;;;0.40;0.10;;;;;;;18.55;59.06;100169.11;104216;1277;95437;-71
2022/06/23 00:14:14;;;;;;;0.40;0.10;;;;;;;18.49;59.31;100175.06;104251;1277;109634;-70
2022/06/23 00:16:43;;;;;;;0.40;0.10;;;;;;;18.49;59.53;100173.25;104195;1277;98751;-70
2022/06/23 00:19:15;;;;;;;0.40;0.10;;;;;;;18.44;59.80;100170.55;104198;1277;108869;-70
2022/06/23 00:21:50;;;;;;;0.40;0.10;;;;;;;18.24;59.96;100169.23;104042;1277;138910;-71
2022/06/23 00:24:24;;;;;;;0.40;0.10;;;;;;;18.10;60.30;100173.52;104191;1277;95214;-70
2022/06/23 00:26:53;;;;;;;0.40;0.10;;;;;;;18.08;60.52;100175.26;104090;1277;139472;-70
2022/06/23 00:29:23;;;;;;;0.40;0.10;;;;;;;18.12;60.55;100176.45;104341;1277;99367;-70
2022/06/23 00:32:02;;;;;;;0.40;0.10;;;;;;;18.14;60.63;100180.11;104208;1277;109285;-70
2022/06/23 00:34:38;;;;;;;0.40;0.10;;;;;;;18.11;60.87;100179.23;104184;1277;95743;-70
2022/06/23 00:37:15;;;;;;;0.40;0.10;;;;;;;18.13;61.02;100180.39;104215;1277;95493;-70
2022/06/23 00:39:53;;;;;;;0.40;0.10;;;;;;;18.13;60.89;100180.17;104076;1277;138764;-70
2022/06/23 00:42:28;;;;;;;0.40;0.10;;;;;;;18.13;60.81;100181.09;104187;1277;99345;-70
2022/06/23 00:45:12;;;;;;;0.40;0.10;;;;;;;18.15;60.75;100185.98;104066;1277;138748;-70
2022/06/23 00:47:59;;;;;;;0.40;0.10;;;;;;;18.22;60.68;100191.30;104177;1277;95869;-68
2022/06/23 00:50:29;;;;;;;0.40;0.10;;;;;;;18.22;60.56;100190.58;103210;1277;138201;-70
2022/06/23 00:53:04;;;;;;;0.40;0.10;;;;;;;18.21;60.40;100189.19;104219;1277;109793;-70
2022/06/23 00:55:32;;;;;;;0.40;0.10;;;;;;;18.18;60.64;100186.89;104180;1277;99342;-71
2022/06/23 00:58:05;;;;;;;0.40;0.10;;;;;;;18.19;60.64;100183.20;104131;1277;138831;-70
2022/06/23 01:00:38;;;;;;;0.40;0.10;;;;;;;18.19;60.57;100181.95;104231;1277;95151;-70
2022/06/23 01:03:37;;;;;;;0.40;0.10;;;;;;;18.16;60.66;100183.94;104046;1277;138101;-70
2022/06/23 01:06:15;;;;;;;0.40;0.10;;;;;;;18.17;60.63;100183.00;105186;1277;109674;-71
2022/06/23 01:08:53;;;;;;;0.40;0.10;;;;;;;18.20;60.79;100187.83;103481;1277;138899;-69
2022/06/23 01:11:50;;;;;;;0.40;0.10;;;;;;;18.23;60.71;100185.70;103427;1277;108879;-70
2022/06/23 01:14:40;;;;;;;0.40;0.10;;;;;;;18.14;60.89;100181.20;103510;1277;138458;-70
2022/06/23 01:17:23;;;;;;;0.40;0.10;;;;;;;18.11;61.08;100179.26;104486;1277;96055;-70
2022/06/23 01:20:08;;;;;;;0.40;0.10;;;;;;;18.05;60.87;100178.17;104105;1276;109762;-71
2022/06/23 01:22:40;;;;;;;0.40;0.10;;;;;;;17.98;61.17;100180.88;104133;1277;99563;-70
2022/06/23 01:25:40;;;;;;;0.40;0.10;;;;;;;17.95;61.24;100180.89;104072;1277;108928;-70
2022/06/23 01:28:17;;;;;;;0.40;0.10;;;;;;;17.94;61.07;100183.34;103999;1277;139061;-70
2022/06/23 01:31:00;;;;;;;0.40;0.10;;;;;;;17.92;61.21;100185.55;104147;1277;95224;-70
2022/06/23 01:34:09;;;;;;;0.40;0.10;;;;;;;17.93;61.04;100187.65;103999;1277;138655;-70
2022/06/23 01:36:44;;;;;;;0.40;0.10;;;;;;;17.85;61.10;100189.36;103987;1279;99391;-69
2022/06/23 01:39:15;;;;;;;0.40;0.10;;;;;;;17.84;61.39;100191.07;104001;1277;138860;-70
2022/06/23 01:41:53;;;;;;;0.40;0.10;;;;;;;17.86;61.25;100194.17;104060;1277;95312;-69
2022/06/23 01:44:50;;;;;;;0.40;0.10;;;;;;;17.85;61.25;100196.92;104046;1277;138704;-70
2022/06/23 01:47:53;;;;;;;0.40;0.10;;;;;;;17.83;61.20;100199.02;103824;1277;108712;-69
2022/06/23 01:50:30;;;;;;;0.40;0.10;;;;;;;17.84;61.07;100200.73;103882;1277;139280;-70
2022/06/23 01:53:28;;;;;;;0.40;0.10;;;;;;;17.81;61.37;100200.92;104080;1277;108854;-71
2022/06/23 01:56:14;;;;;;;0.40;0.10;;;;;;;17.76;61.25;100200.37;103996;1279;95737;-70
2022/06/23 01:59:05;;;;;;;0.40;0.10;;;;;;;17.76;61.20;100204.45;104079;1280;95662;-70
2022/06/23 02:01:51;;;;;;;0.40;0.10;;;;;;;17.73;61.30;100202.50;104068;1277;109699;-70
2022/06/23 02:04:58;;;;;;;0.40;0.10;;;;;;;17.68;61.60;100204.40;104022;1277;139002;-70
2022/06/23 02:07:34;;;;;;;0.40;0.10;;;;;;;17.65;61.55;100206.52;104148;1277;108866;-69
2022/06/23 02:10:20;;;;;;;0.40;0.10;;;;;;;17.64;61.81;100203.73;104046;1277;138319;-69
2022/06/23 02:13:02;;;;;;;0.40;0.10;;;;;;;17.63;61.99;100201.64;103450;1277;95232;-71
2022/06/23 02:15:39;;;;;;;0.40;0.10;;;;;;;17.58;62.05;100202.46;104039;1277;138632;-70
2022/06/23 02:18:23;;;;;;;0.40;0.10;;;;;;;17.54;62.06;100203.75;104217;1277;99686;-69
2022/06/23 02:20:56;;;;;;;0.40;0.10;;;;;;;17.50;62.00;100204.00;104057;1277;138135;-70
2022/06/23 02:23:32;;;;;;;0.40;0.10;;;;;;;17.41;62.21;100204.51;104215;1277;95168;-69
2022/06/23 02:26:17;;;;;;;0.40;0.10;;;;;;;17.38;62.46;100208.31;104092;1277;139452;-70
2022/06/23 02:28:57;;;;;;;0.40;0.10;;;;;;;17.44;62.19;100208.46;104195;1279;109839;-70
2022/06/23 02:31:45;;;;;;;0.40;0.10;;;;;;;17.52;61.83;100209.11;104166;1277;99869;-71
2022/06/23 02:34:23;;;;;;;0.40;0.10;;;;;;;17.50;61.84;100213.70;104415;1277;138195;-71
2022/06/23 02:36:56;;;;;;;0.40;0.10;;;;;;;17.44;62.11;100214.80;104206;1277;95380;-69
2022/06/23 02:39:52;;;;;;;0.40;0.10;;;;;;;17.46;62.06;100215.00;104093;1277;138655;-70
2022/06/23 02:42:32;;;;;;;0.40;0.10;;;;;;;17.44;62.39;100211.88;104161;1277;109748;-70
2022/06/23 02:45:17;;;;;;;0.40;0.10;;;;;;;17.35;62.49;100212.55;104101;1277;138693;-70
2022/06/23 02:47:47;;;;;;;0.40;0.10;;;;;;;17.34;62.54;100221.08;104264;1277;108822;-70
2022/06/23 02:50:41;;;;;;;0.40;0.10;;;;;;;17.39;62.53;100219.38;104092;1277;138841;-69
2022/06/23 02:53:12;;;;;;;0.40;0.20;;;;;;;17.41;62.46;100222.50;104385;1277;95112;-69
2022/06/23 02:55:52;;;;;;;0.40;0.10;;;;;;;17.40;62.39;100225.59;104180;1277;109734;-69
2022/06/23 02:58:27;;;;;;;0.40;0.10;;;;;;;17.44;62.39;100224.83;104102;1277;138973;-70
2022/06/23 03:01:00;;;;;;;0.40;0.10;;;;;;;17.44;62.78;100225.37;104132;1277;108849;-70
2022/06/23 03:03:40;;;;;;;0.40;0.20;;;;;;;17.44;62.80;100226.09;103601;1277;139404;-70
2022/06/23 03:06:24;;;;;;;0.40;0.10;;;;;;;17.48;62.78;100230.30;103532;1277;95807;-70
2022/06/23 03:09:15;;;;;;;0.40;0.10;;;;;;;17.58;62.64;100234.05;103920;1277;138245;-70
2022/06/23 03:11:58;;;;;;;0.40;0.10;;;;;;;17.70;62.29;100239.29;103353;1277;99494;-71
2022/06/23 03:15:03;;;;;;;0.40;0.10;;;;;;;17.82;61.87;100236.95;104099;1279;138856;-69
2022/06/23 03:17:34;;;;;;;0.40;0.10;;;;;;;17.88;62.28;100241.48;104204;1277;95760;-71
2022/06/23 03:20:13;;;;;;;0.40;0.10;;;;;;;17.80;63.00;100244.09;104107;1277;138661;-70
2022/06/23 03:23:04;;;;;;;0.40;0.10;;;;;;;17.84;63.10;100246.54;104214;1277;109743;-70
2022/06/23 03:25:32;;;;;;;0.40;0.10;;;;;;;17.98;62.35;100249.71;104245;1277;98883;-69
2022/06/23 03:28:04;;;;;;;0.40;0.10;;;;;;;18.08;62.05;100251.43;104121;1277;138620;-70
2022/06/23 03:30:45;;;;;;;0.40;0.10;;;;;;;18.10;62.23;100254.59;104224;1277;95180;-70
2022/06/23 03:33:20;;;;;;;0.40;0.10;;;;;;;18.09;62.60;100257.33;103989;1277;138449;-69
2022/06/23 03:35:55;;;;;;;0.40;0.10;;;;;;;18.12;63.09;100255.89;104191;1277;110072;-70
2022/06/23 03:41:36;;;;;;;0.40;0.10;;;;;;;18.12;63.13;100255.33;104086;1277;138923;-70
2022/06/23 03:41:36;;;;;;;0.40;0.10;;;;;;;18.15;62.98;100255.14;104222;1277;108836;-70
2022/06/23 03:44:16;;;;;;;0.40;0.10;;;;;;;18.21;62.69;100258.55;104110;1277;138461;-68
2022/06/23 03:47:00;;;;;;;0.40;0.10;;;;;;;18.37;62.15;100259.61;103510;1277;95217;-69
2022/06/23 03:49:38;;;;;;;0.40;0.10;;;;;;;18.51;62.12;100257.63;104575;1277;108675;-70
2022/06/23 03:52:18;;;;;;;0.40;0.10;;;;;;;18.57;62.02;100262.13;103339;1277;138880;-70
2022/06/23 03:55:01;;;;;;;0.40;0.10;;;;;;;18.59;62.21;100261.34;103895;1277;108776;-69
2022/06/23 03:57:46;;;;;;;0.40;0.10;;;;;;;18.64;62.31;100262.27;103407;1277;139175;-68
2022/06/23 04:00:24;;;;;;;0.40;0.10;;;;;;;18.74;62.46;100261.98;104074;1277;95645;-69
2022/06/23 04:03:22;;;;;;;0.40;0.10;;;;;;;18.88;62.14;100266.71;103315;1277;138799;-68
2022/06/23 04:05:56;;;;;;;0.40;0.10;;;;;;;18.91;62.15;100265.84;103835;1279;97832;-69
2022/06/23 04:08:30;;;;;;;0.40;0.10;;;;;;;18.98;61.63;100269.89;103236;1277;138616;-69
2022/06/23 04:11:43;;;;;;;0.40;0.10;;;;;;;19.16;60.72;100278.64;103619;1277;95225;-69
2022/06/23 04:13:53;;;;;;;0.40;0.10;;;;;;;19.29;59.99;100281.41;103448;1277;95640;-70
2022/06/23 04:16:25;;;;;;;0.40;0.10;;;;;;;19.39;59.47;100284.73;103710;1277;138412;-70
2022/06/23 04:18:53;;;;;;;0.40;0.10;;;;;;;19.46;59.46;100284.98;103723;1277;99568;-69
2022/06/23 04:21:27;;;;;;;0.40;0.10;;;;;;;19.57;59.37;100290.59;103497;1277;139471;-69
2022/06/23 04:24:00;;;;;;;0.40;0.10;;;;;;;19.66;59.17;100287.28;103387;1277;95517;-70
2022/06/23 04:26:35;;;;;;;0.40;0.10;;;;;;;19.72;59.49;100291.19;103922;1277;138398;-69
2022/06/23 04:29:11;;;;;;;0.40;0.10;;;;;;;19.81;58.89;100294.96;103665;1277;110173;-69
2022/06/23 04:31:47;;;;;;;0.40;0.10;;;;;;;19.89;58.23;100298.02;103950;1277;98396;-69
2022/06/23 04:34:22;;;;;;;0.40;0.10;;;;;;;19.96;58.05;100302.81;103266;1277;138783;-71
2022/06/23 04:36:51;;;;;;;0.40;0.10;;;;;;;20.05;57.86;100303.47;104138;1277;95135;-69
2022/06/23 04:39:39;;;;;;;0.40;0.10;;;;;;;20.08;57.49;100307.77;104083;1277;138492;-70
2022/06/23 04:42:21;;;;;;;0.40;0.10;;;;;;;20.15;57.40;100307.82;104221;1277;109119;-70
2022/06/23 04:44:54;;;;;;;0.40;0.10;;;;;;;20.23;57.18;100311.80;104046;1277;138671;-70
2022/06/23 04:47:31;;;;;;;0.40;0.10;;;;;;;20.29;57.00;100314.25;104199;1277;108809;-70
2022/06/23 04:50:12;;;;;;;0.40;0.10;;;;;;;20.34;57.03;100317.36;104108;1277;95228;-70
2022/06/23 04:52:46;;;;;;;0.40;0.10;;;;;;;20.47;56.51;100319.35;104135;1277;95743;-69
2022/06/23 04:55:30;;;;;;;0.40;0.10;;;;;;;20.57;56.39;100321.93;104364;1277;109786;-69
2022/06/23 04:58:04;;;;;;;0.40;0.10;;;;;;;20.62;56.08;100330.09;104009;1277;138357;-69
2022/06/23 05:00:50;;;;;;;0.40;0.10;;;;;;;20.66;55.62;100331.56;104134;1277;108632;-69
2022/06/23 05:03:37;;;;;;;0.40;0.10;;;;;;;20.73;55.80;100335.27;104393;1277;139053;-69
2022/06/23 05:06:29;;;;;;;0.40;0.10;;;;;;;20.73;55.07;100343.91;104373;1277;95202;-69
2022/06/23 05:09:12;;;;;;;0.40;0.10;;;;;;;20.80;55.72;100347.62;103517;1277;138125;-70
2022/06/23 05:12:09;;;;;;;0.40;0.10;;;;;;;20.91;55.33;100353.90;104182;1278;100101;-70
2022/06/23 05:14:47;;;;;;;0.40;0.10;;;;;;;20.95;54.68;100352.14;103995;1280;138918;-70
2022/06/23 05:17:22;;;;;;;0.40;0.10;;;;;;;21.04;54.67;100355.67;104156;1277;95309;-70
2022/06/23 05:19:56;;;;;;;0.40;0.10;;;;;;;21.04;54.32;100354.20;103927;1278;396602;-70
2022/06/23 05:22:31;;;;;;;0.40;0.10;;;;;;;21.07;53.75;100353.29;104054;1278;138307;-71
2022/06/23 05:25:27;;;;;;;0.40;0.10;;;;;;;21.20;53.81;100356.38;104317;1277;98297;-71
2022/06/23 05:27:55;;;;;;;0.40;0.10;;;;;;;21.29;54.23;100362.90;104056;1280;138119;-71
2022/06/23 05:30:34;;;;;;;0.40;0.10;;;;;;;21.40;54.15;100364.51;104163;1277;95268;-72
2022/06/23 05:33:07;;;;;;;0.40;0.10;;;;;;;21.44;54.43;100366.71;104036;1278;138035;-72
2022/06/23 05:35:42;;;;;;;0.40;0.10;;;;;;;21.41;54.45;100370.34;104143;1277;109711;-71
2022/06/23 05:38:35;;;;;;;0.40;0.10;;;;;;;21.46;54.68;100371.61;104059;1280;139165;-70
2022/06/23 05:41:24;;;;;;;0.40;0.10;;;;;;;21.61;53.93;100369.66;104165;1277;109286;-70
2022/06/23 05:43:56;;;;;;;0.40;0.10;;;;;;;21.71;52.66;100375.27;104124;1277;96194;-71
2022/06/23 05:46:27;;;;;;;0.40;0.00;;;;;;;21.78;52.32;100373.33;104045;1277;138019;-71
2022/06/23 05:49:03;;;;;;;0.40;0.10;;;;;;;21.86;52.46;100369.85;104152;1277;109747;-70
2022/06/23 05:51:40;;;;;;;0.40;0.10;;;;;;;21.85;52.44;100369.75;104132;1278;138453;-71
2022/06/23 05:54:17;;;;;;;0.40;0.10;;;;;;;21.84;52.16;100368.88;104147;1280;108889;-69
2022/06/23 05:56:53;;;;;;;0.40;0.00;;;;;;;21.87;52.38;100371.21;104024;1277;139550;-70
2022/06/23 05:59:33;;;;;;;0.40;0.10;;;;;;;21.90;51.87;100374.97;104169;1278;95134;-71
2022/06/23 06:02:29;;;;;;;0.40;0.10;;;;;;;21.93;51.63;100374.91;104111;1278;138316;-71
2022/06/23 06:05:00;;;;;;;0.40;0.10;;;;;;;21.99;51.29;100383.34;104274;1278;99388;-72
2022/06/23 06:07:39;;;;;;;0.40;0.10;;;;;;;21.87;51.16;100390.56;105092;1277;108775;-71
2022/06/23 06:10:15;;;;;;;0.40;0.10;;;;;;;21.78;51.20;100393.71;104240;1277;138243;-71
2022/06/23 06:12:43;;;;;;;0.40;0.10;;;;;;;21.86;51.77;100396.40;104131;1280;95177;-71
2022/06/23 06:15:20;;;;;;;0.40;0.10;;;;;;;21.98;50.89;100392.29;104020;1278;138062;-71
2022/06/23 06:17:50;;;;;;;0.40;0.10;;;;;;;22.08;50.56;100395.71;104107;1277;99402;-70
2022/06/23 06:20:23;;;;;;;0.40;0.10;;;;;;;22.14;50.81;100399.17;103957;1278;138191;-72
2022/06/23 06:23:08;;;;;;;0.40;0.10;;;;;;;22.16;50.85;100398.70;104164;1280;95761;-71
2022/06/23 06:25:45;;;;;;;0.40;0.10;;;;;;;22.16;49.74;100399.60;104151;1277;95185;-69
2022/06/23 06:28:19;;;;;;;0.40;0.10;;;;;;;22.16;50.03;100403.23;104310;1278;138621;-71
2022/06/23 06:31:02;;;;;;;0.40;0.10;;;;;;;22.21;50.22;100399.94;104255;1278;99385;-70
2022/06/23 06:33:57;;;;;;;0.40;0.10;;;;;;;22.13;48.42;100405.80;104166;1277;139078;-70
2022/06/23 06:36:25;;;;;;;0.40;0.10;;;;;;;22.01;48.13;100411.40;104155;1277;95269;-70
2022/06/23 06:39:00;;;;;;;0.40;0.10;;;;;;;22.02;48.95;100411.48;104056;1277;138366;-70
2022/06/23 06:41:31;;;;;;;0.40;0.10;;;;;;;22.14;49.37;100410.65;104237;1278;108720;-70
2022/06/23 06:44:02;;;;;;;0.40;0.10;;;;;;;22.21;49.50;100417.34;104111;1278;138601;-71
2022/06/23 06:46:31;;;;;;;0.40;0.10;;;;;;;22.29;48.90;100416.91;104185;1278;108759;-71
2022/06/23 06:48:59;;;;;;;0.40;0.10;;;;;;;22.38;49.76;100418.80;104356;1277;95503;-71
2022/06/23 06:51:29;;;;;;;0.40;0.10;;;;;;;22.43;49.08;100420.44;104031;1278;137952;-71
2022/06/23 06:54:06;;;;;;;0.40;0.10;;;;;;;22.49;48.71;100419.94;104202;1278;109743;-71
2022/06/23 06:56:44;;;;;;;0.40;0.10;;;;;;;22.56;48.19;100422.54;104059;1278;138512;-71
2022/06/23 06:59:17;;;;;;;0.40;0.10;;;;;;;22.67;47.85;100419.52;104144;1277;108168;-71
2022/06/23 07:02:00;;;;;;;0.40;0.10;;;;;;;22.72;46.72;100421.64;104167;1277;96154;-71
2022/06/23 07:04:38;;;;;;;0.40;0.10;;;;;;;22.73;46.52;100424.14;104116;1278;95238;-71
2022/06/23 07:07:12;;;;;;;0.40;0.10;;;;;;;22.72;46.81;100419.81;104222;1277;109671;-71
2022/06/23 07:09:53;;;;;;;0.40;0.10;;;;;;;22.79;46.54;100422.58;104026;1277;138652;-70
2022/06/23 07:12:29;;;;;;;0.40;0.00;;;;;;;22.79;46.25;100426.77;104179;1278;108949;-71
2022/06/23 07:15:09;;;;;;;0.40;0.00;;;;;;;22.83;46.20;100425.52;104038;1280;138895;-71
2022/06/23 07:17:44;;;;;;;0.40;0.10;;;;;;;22.90;45.52;100429.52;104114;1280;95569;-75
2022/06/23 07:20:34;;;;;;;0.40;0.10;;;;;;;22.95;45.76;100433.08;104027;1277;138392;-72
2022/06/23 07:23:10;;;;;;;0.40;0.00;;;;;;;22.98;45.79;100434.18;104167;1277;99740;-71
2022/06/23 07:25:52;;;;;;;0.40;0.10;;;;;;;23.03;46.14;100436.45;104133;1277;108881;-71
2022/06/23 07:28:32;;;;;;;0.40;0.10;;;;;;;23.07;46.04;100436.48;104045;1278;138184;-71
2022/06/23 07:31:19;;;;;;;0.40;0.10;;;;;;;23.11;45.88;100437.45;104125;1277;95171;-71
2022/06/23 07:33:53;;;;;;;0.40;0.10;;;;;;;23.17;46.46;100435.73;104073;1277;140236;-70
2022/06/23 07:36:31;;;;;;;0.40;0.10;;;;;;;23.28;46.33;100437.61;104182;1280;99586;-70
2022/06/23 07:39:07;;;;;;;0.40;0.10;;;;;;;23.28;45.72;100433.67;104023;1280;141690;-71
2022/06/23 07:41:45;;;;;;;0.40;0.00;;;;;;;23.30;45.79;100438.36;104179;1277;95144;-71
2022/06/23 07:44:40;;;;;;;0.40;0.10;;;;;;;23.40;45.52;100441.05;104066;1279;138280;-71
2022/06/23 07:47:09;;;;;;;0.40;0.00;;;;;;;23.51;44.47;100444.49;104196;1278;109702;-71
2022/06/23 07:49:37;;;;;;;0.40;0.00;;;;;;;23.58;44.70;100444.51;104194;1277;98414;-71
2022/06/23 07:52:06;;;;;;;0.40;0.00;;;;;;;23.70;44.71;100444.27;104065;1278;138373;-71
2022/06/23 07:54:36;;;;;;;0.40;0.00;;;;;;;23.86;44.64;100450.91;104138;1277;95675;-70
2022/06/23 07:57:04;;;;;;;0.40;0.00;;;;;;;23.93;43.38;100450.25;104021;1277;138181;-72
2022/06/23 07:59:42;;;;;;;0.40;0.00;;;;;;;23.95;43.06;100450.42;104087;1281;109807;-71
2022/06/23 08:02:20;;;;;;;0.40;0.00;;;;;;;23.97;43.59;100453.73;104075;1277;138858;-71
2022/06/23 08:05:05;;;;;;;0.40;0.10;;;;;;;24.01;43.56;100451.70;104114;1278;108689;-70
2022/06/23 08:07:35;;;;;;;0.40;0.00;;;;;;;24.08;43.74;100455.02;104128;1278;95199;-70
2022/06/23 08:10:11;;;;;;;0.40;0.10;;;;;;;24.13;44.26;100454.59;104051;1277;138097;-71
2022/06/23 08:12:58;;;;;;;0.40;0.00;;;;;;;24.21;44.02;100451.73;104255;1277;109732;-71
2022/06/23 08:18:45;;;;;;;0.40;0.00;;;;;;;24.42;43.61;100445.06;104164;1278;107779;-71
2022/06/23 08:21:23;;;;;;;0.40;0.00;;;;;;;24.36;42.49;100439.02;104132;1278;138266;-71
2022/06/23 08:24:15;;;;;;;0.40;0.10;;;;;;;24.34;42.95;100438.29;104173;1277;95179;-72
2022/06/23 08:26:48;;;;;;;0.40;0.10;;;;;;;24.37;43.01;100442.75;104062;1278;137896;-72
2022/06/23 08:29:21;;;;;;;0.40;0.00;;;;;;;24.27;42.50;100443.29;104117;1281;99394;-71
2022/06/23 08:31:49;;;;;;;0.40;0.10;;;;;;;24.24;42.71;100445.87;104171;1278;108843;-71
2022/06/23 08:34:34;;;;;;;0.40;0.00;;;;;;;24.48;42.83;100448.95;104720;1277;95313;-72
2022/06/23 08:37:22;;;;;;;0.40;0.10;;;;;;;24.74;42.57;100446.37;104196;1278;96945;-71
2022/06/23 08:39:59;;;;;;;0.40;0.10;;;;;;;24.95;41.50;100439.95;104429;1281;138164;-71
2022/06/23 08:42:50;;;;;;;0.40;0.00;;;;;;;25.02;41.21;100441.27;104160;1277;98542;-71
2022/06/23 08:45:39;;;;;;;0.40;0.00;;;;;;;24.94;40.31;100435.80;104040;1277;138073;-71
2022/06/23 08:48:33;;;;;;;0.40;0.10;;;;;;;24.99;40.93;100438.27;104186;1277;95895;-70
2022/06/23 08:51:09;;;;;;;0.40;0.00;;;;;;;25.17;40.68;100443.10;104052;1281;138247;-71
2022/06/23 08:53:58;;;;;;;0.40;0.10;;;;;;;25.38;40.20;100448.23;104119;1280;109796;-71
2022/06/23 08:56:36;;;;;;;0.40;0.10;;;;;;;25.64;40.24;100443.38;104058;1277;138420;-70
2022/06/23 08:59:41;;;;;;;0.40;0.10;;;;;;;25.84;39.09;100445.76;104152;1277;108342;-71
2022/06/23 09:02:26;;;;;;;0.40;0.10;;;;;;;26.14;38.99;100443.61;104050;1277;138522;-71
2022/06/23 09:05:27;;;;;;;0.40;0.00;;;;;;;26.27;38.65;100448.70;104175;1277;95139;-72
2022/06/23 09:08:25;;;;;;;0.40;0.00;;;;;;;26.44;37.72;100441.95;104106;1277;109727;-71
2022/06/23 09:11:28;;;;;;;0.40;0.00;;;;;;;26.76;37.76;100441.58;104158;1278;99370;-71
2022/06/23 09:14:26;;;;;;;0.40;0.00;;;;;;;26.98;37.76;100439.73;104124;1277;108787;-71
2022/06/23 09:17:26;;;;;;;0.40;0.00;;;;;;;27.11;36.66;100438.52;104075;1281;95218;-71
2022/06/23 09:20:08;;;;;;;0.40;0.00;;;;;;;27.31;37.27;100436.78;104127;1277;95246;-70
2022/06/23 09:22:43;;;;;;;0.40;0.00;;;;;;;27.82;36.14;100440.39;104138;1277;109850;-70
2022/06/23 09:25:12;;;;;;;0.40;0.00;;;;;;;28.65;34.36;100438.72;104187;1277;98346;-71
2022/06/23 09:27:58;;;;;;;0.40;0.00;;;;;;;29.68;33.07;100441.58;104030;1278;138670;-72
2022/06/23 09:30:31;;;;;;;0.40;0.00;;;;;;;30.83;30.80;100448.70;104159;1278;95237;-72
2022/06/23 09:33:06;;;;;;;0.40;0.00;;;;;;;31.78;29.10;100448.54;104010;1278;138795;-70
2022/06/23 09:35:47;;;;;;;0.40;0.00;;;;;;;32.07;27.65;100451.73;104183;1278;108689;-70
2022/06/23 09:39:01;;;;;;;0.40;0.00;;;;;;;32.79;27.68;100455.49;104028;1278;137489;-71
2022/06/23 09:41:47;;;;;;;0.40;0.00;;;;;;;33.89;26.69;100453.20;103734;1277;108915;-72
2022/06/23 09:44:24;;;;;;;0.40;0.00;;;;;;;34.66;25.11;100457.48;104089;1277;139169;-72
2022/06/23 09:47:13;;;;;;;0.40;0.00;;;;;;;35.23;23.11;100453.48;104141;1278;95137;-72
2022/06/23 09:49:47;;;;;;;0.40;0.00;;;;;;;35.60;22.09;100453.22;104120;1278;108313;-71
2022/06/23 09:52:28;;;;;;;0.40;0.00;;;;;;;36.15;21.58;100455.42;104074;1277;138063;-70
2022/06/23 09:55:10;;;;;;;0.40;0.00;;;;;;;36.71;21.76;100453.29;104174;1277;108295;-70
2022/06/23 09:58:14;;;;;;;0.40;0.00;;;;;;;37.19;21.42;100448.66;104059;1278;138355;-71
2022/06/23 10:01:12;;;;;;;0.40;0.00;;;;;;;37.71;20.87;100451.98;104146;1278;95623;-70
2022/06/23 10:04:02;;;;;;;0.40;0.00;;;;;;;38.13;20.03;100447.72;104031;1277;138061;-70
2022/06/23 10:06:55;;;;;;;0.40;0.00;;;;;;;38.54;20.34;100450.16;104152;1278;99420;-70
2022/06/23 10:09:32;;;;;;;0.40;0.00;;;;;;;38.81;18.97;100445.55;104033;1277;138096;-71
2022/06/23 10:12:22;;;;;;;0.40;0.00;;;;;;;38.72;18.11;100444.52;104143;1277;95328;-71
2022/06/23 10:14:59;;;;;;;0.40;0.00;;;;;;;38.75;19.19;100445.19;104132;1277;138105;-70
2022/06/23 10:17:54;;;;;;;0.40;0.00;;;;;;;38.83;19.59;100451.48;104250;1277;109287;-70
2022/06/23 10:20:39;;;;;;;0.40;0.00;;;;;;;38.70;19.76;100447.19;104182;1278;138536;-70
2022/06/23 10:23:40;;;;;;;0.40;0.00;;;;;;;37.61;20.12;100451.49;104142;1278;108868;-70
2022/06/23 10:26:25;;;;;;;0.40;0.00;;;;;;;36.54;21.51;100453.64;104126;1278;138539;-69
2022/06/23 10:29:31;;;;;;;0.40;0.00;;;;;;;37.16;21.21;100453.54;104335;1277;95154;-70
2022/06/23 10:32:38;;;;;;;0.40;0.00;;;;;;;37.70;19.90;100453.72;104132;1278;109653;-70
2022/06/23 10:35:37;;;;;;;0.40;0.00;;;;;;;37.76;20.20;100453.50;104001;1279;99415;-70
2022/06/23 10:38:29;;;;;;;0.40;0.00;;;;;;;38.29;19.55;100454.12;104060;1277;138251;-69
2022/06/23 10:41:10;;;;;;;0.40;0.00;;;;;;;37.58;19.65;100455.66;103517;1277;96131;-70
2022/06/23 10:44:00;;;;;;;0.40;0.00;;;;;;;36.33;20.89;100458.86;104158;1277;95251;-69
2022/06/23 10:46:34;;;;;;;0.40;0.00;;;;;;;35.14;22.88;100463.30;104185;1277;111033;-70
2022/06/23 10:49:17;;;;;;;0.40;0.00;;;;;;;34.09;23.53;100459.20;104184;1277;99460;-70
2022/06/23 10:52:22;;;;;;;0.40;0.00;;;;;;;33.52;24.08;100463.60;104114;1277;138094;-70
2022/06/23 10:55:02;;;;;;;0.40;0.00;;;;;;;32.82;25.54;100465.95;104215;1277;95625;-70
2022/06/23 10:57:45;;;;;;;0.40;0.00;;;;;;;32.45;26.16;100470.34;104143;1277;138156;-70
2022/06/23 11:00:32;;;;;;;0.40;0.00;;;;;;;33.32;25.88;100468.00;104197;1277;112693;-70
2022/06/23 11:03:14;;;;;;;0.40;0.00;;;;;;;34.36;24.63;100466.30;104079;1277;139013;-70
2022/06/23 11:06:04;;;;;;;0.40;0.00;;;;;;;34.71;23.49;100459.21;104170;1277;108834;-70
2022/06/23 11:09:06;;;;;;;0.40;0.00;;;;;;;34.29;23.91;100453.30;104058;1277;138648;-69
2022/06/23 11:11:56;;;;;;;0.40;0.00;;;;;;;33.34;24.13;100461.36;104205;1277;97195;-70
2022/06/23 11:14:42;;;;;;;0.40;0.00;;;;;;;32.77;25.36;100460.84;104110;1277;138319;-70
2022/06/23 11:17:15;;;;;;;0.40;0.00;;;;;;;32.45;24.99;100469.02;104212;1277;98878;-70
2022/06/23 11:19:52;;;;;;;0.40;0.00;;;;;;;31.78;25.26;100463.33;104187;1277;108905;-70
2022/06/23 11:22:20;;;;;;;0.40;0.00;;;;;;;31.35;26.81;100460.96;104143;1279;138131;-70
2022/06/23 11:24:56;;;;;;;0.40;0.00;;;;;;;31.24;27.62;100464.60;104223;1277;96684;-71
2022/06/23 11:27:33;;;;;;;0.40;0.00;;;;;;;31.06;27.54;100461.98;104038;1280;138123;-70
2022/06/23 11:30:39;;;;;;;0.40;0.00;;;;;;;30.76;28.33;100461.64;104167;1277;99472;-70
2022/06/23 11:33:17;;;;;;;0.40;0.00;;;;;;;30.44;28.07;100461.25;104048;1277;137980;-70
2022/06/23 11:35:51;;;;;;;0.40;0.00;;;;;;;30.38;28.08;100461.23;104100;1279;95284;-71
2022/06/23 11:38:37;;;;;;;0.40;0.00;;;;;;;30.20;29.05;100460.82;104003;1277;138313;-70
2022/06/23 11:41:26;;;;;;;0.40;0.00;;;;;;;30.17;29.81;100462.94;104154;1277;109559;-70
2022/06/23 11:44:05;;;;;;;0.40;0.00;;;;;;;29.87;28.58;100457.66;104160;1277;98443;-70
2022/06/23 11:46:38;;;;;;;0.40;0.00;;;;;;;29.69;29.98;100457.27;104149;1279;108946;-70
2022/06/23 11:49:15;;;;;;;0.40;0.00;;;;;;;29.61;29.16;100456.80;104600;1277;95243;-70
2022/06/23 11:51:55;;;;;;;0.40;0.00;;;;;;;29.55;29.58;100460.00;104084;1277;137989;-70
2022/06/23 11:54:45;;;;;;;0.40;0.00;;;;;;;29.43;29.44;100460.52;104499;1277;110311;-70
2022/06/23 11:57:50;;;;;;;0.40;0.00;;;;;;;29.30;29.32;100460.97;104164;1278;138263;-70
2022/06/23 12:00:31;;;;;;;0.40;0.00;;;;;;;29.15;29.01;100460.71;104162;1277;109096;-70
2022/06/23 12:03:20;;;;;;;0.40;0.00;;;;;;;29.06;28.68;100455.94;103992;1277;138354;-72
2022/06/23 12:06:13;;;;;;;0.40;0.00;;;;;;;28.94;28.41;100452.39;104132;1280;95220;-72
2022/06/23 12:08:44;;;;;;;0.40;0.00;;;;;;;28.75;29.52;100456.06;104102;1277;138548;-71
2022/06/23 12:11:12;;;;;;;0.40;0.00;;;;;;;28.77;29.59;100459.84;104123;1277;100033;-71
2022/06/23 12:13:40;;;;;;;0.40;0.00;;;;;;;28.81;29.98;100459.55;104201;1280;109048;-71
2022/06/23 12:16:08;;;;;;;0.40;0.00;;;;;;;28.84;29.77;100458.67;103987;1279;138389;-69
2022/06/23 12:18:36;;;;;;;0.40;0.00;;;;;;;28.80;29.28;100458.98;104207;1277;95160;-71